コルドバ の空港の天気 - METARとTAF

コルドバ空港 ( SACO / COR ) - アルゼンチン コルドバ州コルドバ
飛行場実況気象(Metar)
観測時間10/18 06:00 ART (10/18 09:00 UTC)
風向・風速西 3m/s
視程10km以上
天気現象
なし
気温10℃
湿度94%
気圧1020hPa
METARSACO 180900Z 27005KT CAVOK 10/09 Q1020 NOSIG
過去の天気等 Google飛行場航空写真 Wunderground天気予報

過去48時間のMETAR

飛行場予報(TAF)
発表時間: 10/18 02:00 ART (10/18 05:00 UTC)
予報対象時間: 18日3時 ART ~ 19日3時 ART
風向・風速北西 3m/s
視程10km以上
なし
18日5時 ART ~ 18日8時 ART に 確率 40% で一時的に
風向・風速不定 1m/s
視程800m
天気現象散在した霧
全天の8割程度の雲 雲底高度 300m
18日8時 ART ~ 18日10時 ART に徐々に
風向・風速南南東 3m/s
視程5000m
天気現象もや
全天の8割程度の雲 雲底高度 610m
18日10時 ART ~ 18日13時 ART に徐々に
風向・風速南東 5m/s
視程10km以上
少しの雲 雲底高度 910m
TAF SACO 180500Z 1806/1906 32005KT CAVOK TX25/1818Z TN09/1810Z
PROB40 TEMPO 1808/1811 VRB02KT 0800 BCFG BKN010
BECMG 1811/1813 16005KT 5000 BR BKN020
BECMG 1813/1816 14010KT 9999 FEW030